Flight Track Log - Related Links

Times and Time Zones

All times are in EDT time to prevent confusion due to time zone crossing. See the GJS6241 flight status page for this flight to view local times or setup timezone preferences in your user account.

Time Position Orientation Groundspeed Altitude Reporting Facility
EDT Latitude Longitude Course Direction KTS MPH feet Rate Location/Type
Sun 07:44:46 PM 40.7500 -73.8000 239° Southwest 190 219 3,100  Level New York TRACON
Sun 07:45:46 PM 40.8000 -73.7500 37° Northeast 222 255 5,000 1,800 Climbing New York TRACON
Sun 07:46:46 PM 40.8333 -73.8000 311° West 265 305 6,700 2,700 Climbing New York TRACON
Sun 07:47:46 PM 40.8333 -73.9000 270° West 278 320 10,400 3,100 Climbing New York TRACON
Sun 07:48:46 PM 40.8333 -74.0167 270° West 300 345 12,900 2,300 Climbing New York TRACON
Sun 07:49:46 PM 40.8000 -74.1167 246° West 321 369 15,000 1,050 Climbing New York TRACON
Sun 07:50:00 PM 40.4725 -74.5039 239° Southwest  Level FlightAware Approximate
Sun 07:50:46 PM 40.7500 -74.2333 241° Southwest 363 418 15,000  Level New York TRACON
Sun 07:52:40 PM 40.6611 -74.4286 239° Southwest 367 422 17,300 1,517 Climbing New York Center
Sun 07:53:40 PM 40.6050 -74.5569 240° Southwest 373 429 19,400 2,281 Climbing New York Center
Sun 07:54:41 PM 40.5533 -74.6714 239° Southwest 373 429 21,900 2,500 Climbing New York Center
Sun 07:55:40 PM 40.5036 -74.7861 240° Southwest 368 423 24,400 2,350 Climbing New York Center
Sun 07:56:41 PM 40.4539 -74.9031 241° Southwest 368 423 26,600 2,033 Climbing New York Center
Sun 07:57:41 PM 40.3981 -75.0061 235° Southwest 368 423 28,500 1,729 Climbing New York Center
Sun 07:58:39 PM 40.3278 -75.1025 226° Southwest 368 423 30,000 1,350 Climbing New York Center
Sun 07:59:41 PM 40.2758 -75.2136 239° Southwest 368 423 31,200 984 Climbing New York Center
Sun 08:00:41 PM 40.2456 -75.3475 254° West 365 420 32,000 397 Climbing New York Center
Sun 08:01:42 PM 40.2056 -75.4672 246° West 371 427 32,000  Level New York Center
Sun 08:02:39 PM 40.1611 -75.5836 243° Southwest 366 421 32,000  Level New York Center
Sun 08:03:40 PM 40.1069 -75.6858 235° Southwest 356 410 32,000  Level New York Center
Sun 08:04:40 PM 40.0467 -75.7819 231° Southwest 356 410 32,000  Level New York Center
Sun 08:05:41 PM 39.9722 -75.8661 221° Southwest 356 410 32,000 -454 Level New York Center
Sun 08:06:39 PM 39.8936 -75.9469 218° Southwest 356 410 31,100 -1,200 Descending New York Center
Sun 08:07:41 PM 39.8150 -76.0275 218° Southwest 366 421 29,600 -1,672 Descending New York Center
Sun 08:08:41 PM 39.7406 -76.1083 220° Southwest 371 427 27,700 -1,932 Descending New York Center
Sun 08:09:39 PM 39.6642 -76.1836 217° Southwest 366 421 25,800 -1,831 Descending New York Center
Sun 08:10:39 PM 39.5942 -76.2508 217° Southwest 361 415 24,100 -1,443 Descending New York Center
Sun 08:12:17 PM 39.4797 -76.3711 219° Southwest 330 380 22,000 -797 Descending Washington Center
Sun 08:13:17 PM 39.4250 -76.4514 229° Southwest 309 356 22,000  Level Washington Center
Sun 08:14:17 PM 39.3639 -76.5444 230° Southwest 301 346 22,000  Level Washington Center
Sun 08:14:56 PM 39.3333 -76.6000 235° Southwest 311 358 22,000  Level Potomac TRACON
Sun 08:15:50 PM 39.2833 -76.6833 232° Southwest 313 360 22,000  Level Potomac TRACON
Sun 08:16:56 PM 39.2167 -76.7833 229° Southwest 314 361 22,000  Level Potomac TRACON
Sun 08:17:56 PM 39.1667 -76.8667 232° Southwest 310 357 22,000  Level Potomac TRACON
Sun 08:18:56 PM 39.1000 -76.9500 224° Southwest 309 356 22,000  Level Potomac TRACON
Sun 08:19:56 PM 39.0500 -77.0333 232° Southwest 310 357 22,000  Level Potomac TRACON
Sun 08:20:56 PM 38.9833 -77.1000 218° Southwest 319 367 22,000  Level Potomac TRACON
Sun 08:21:50 PM 38.9167 -77.1667 218° Southwest 336 387 22,000 -100 Level Potomac TRACON
Sun 08:22:56 PM 38.8500 -77.2500 224° Southwest 316 364 21,800 -714 Descending Potomac TRACON
Sun 08:23:56 PM 38.8000 -77.3167 226° Southwest 298 343 20,500 -1,368 Descending Potomac TRACON
Sun 08:24:50 PM 38.7333 -77.3833 218° Southwest 294 338 19,200 -1,150 Descending Potomac TRACON
Sun 08:25:56 PM 38.6667 -77.4500 218° Southwest 287 330 18,200 -1,200 Descending Potomac TRACON
Sun 08:26:50 PM 38.6167 -77.5167 226° Southwest 282 325 16,800 -1,407 Descending Potomac TRACON
Sun 08:27:17 PM 38.5850 -77.5411 211° Southwest 282 325 16,300 -1,379 Descending Washington Center
Sun 08:28:17 PM 38.5256 -77.6058 220° Southwest 282 325 14,800 -1,550 Descending Washington Center
Sun 08:29:17 PM 38.4658 -77.6706 220° Southwest 282 325 13,200 -1,350 Descending Washington Center
Sun 08:30:17 PM 38.4064 -77.7353 220° Southwest 282 325 12,100 -550 Descending Washington Center
Sun 08:31:17 PM 38.3469 -77.7997 220° Southwest 282 325 12,100 -50 Level Washington Center
Sun 08:32:17 PM 38.2894 -77.8642 221° Southwest 287 330 12,000 -250 Descending Washington Center
Sun 08:33:17 PM 38.2278 -77.9283 219° Southwest 287 330 11,600 -800 Descending Washington Center
Sun 08:34:17 PM 38.1681 -77.9925 220° Southwest 292 336 10,400 -1,300 Descending Washington Center
Sun 08:35:17 PM 38.1125 -78.0514 220° Southwest 287 330 9,000 -1,550 Descending Washington Center
Sun 08:36:17 PM 38.0858 -78.1403 249° West 263 303 7,300 -1,800 Descending Washington Center
Sun 08:37:17 PM 38.0653 -78.2239 253° West 255 293 5,400 -1,800 Descending Washington Center
Sun 08:38:17 PM 38.0467 -78.3025 253° West 255 293 3,700 -1,200 Descending Washington Center
Sun 08:39:17 PM 38.0258 -78.3914 253° West 250 288 3,000 -350 Descending Washington Center
Sun 08:40:17 PM 38.0122 -78.4381 250° West 219 252 3,000 -100 Level Washington Center
Sun 08:41:17 PM 38.0400 -78.4972 301° West 153 176 2,800 -550 Descending Washington Center
Sun 08:42:17 PM 38.0778 -78.4856 14° North 142 163 1,900 -653 Descending Washington Center
Sun 08:44:39 PM 38.1667 -78.4333 25° Northeast 121 139 600 -549 Descending Potomac TRACON
Sun 08:46:00 PM 38.1333 -78.4500 201° Southwest  Level FlightAware Approximate
Sun 08:53:00 PM 38.1386 -78.4529 201° Southwest  Level Estimated
Sun 08:54:00 PM 38.1333 -78.4500 201° Southwest  Level FlightAware Approximate
Sun 08:55:00 PM 38.1386 -78.4529 201° Southwest  Level Estimated
Sun 08:56:00 PM 38.1333 -78.4500 201° Southwest  Level FlightAware Approximate
Sun 08:57:00 PM 38.1386 -78.4529 201° Southwest  Level Estimated
Sun 08:58:00 PM 38.1333 -78.4500 201° Southwest  Level FlightAware Approximate
Sun 08:59:00 PM 38.1386 -78.4529 201° Southwest  Level Estimated
Sun 09:00:00 PM 38.1333 -78.4500 201° Southwest  Level FlightAware Approximate
Sun 09:01:00 PM 38.1386 -78.4529 201° Southwest  Level Estimated

Login

Don't have an account? Register now (free) for customized features, flight alerts, and more!